createdAt,value
2023-08-01T00:00:52.829Z,2.77
2023-08-01T00:03:20.486Z,2.90
2023-08-01T00:05:48.069Z,2.93
2023-08-01T00:08:16.336Z,3.83
2023-08-01T00:10:43.981Z,3.40
2023-08-01T00:13:11.894Z,3.00
2023-08-01T00:15:41.799Z,3.17
2023-08-01T00:18:12.527Z,3.50
2023-08-01T00:20:40.636Z,3.20
2023-08-01T00:23:08.290Z,3.67
2023-08-01T00:25:35.834Z,3.57
2023-08-01T00:28:03.386Z,3.70
2023-08-01T00:30:30.910Z,3.90
2023-08-01T00:32:58.487Z,3.73
2023-08-01T00:35:27.796Z,3.67
2023-08-01T00:37:55.344Z,3.90
2023-08-01T00:40:22.922Z,4.00
2023-08-01T00:42:56.536Z,3.87
2023-08-01T00:45:25.408Z,4.00
2023-08-01T00:47:53.321Z,3.60
2023-08-01T00:50:21.500Z,3.70
2023-08-01T00:52:52.487Z,3.50
2023-08-01T00:55:21.026Z,3.67
2023-08-01T00:57:49.140Z,3.30
2023-08-01T01:00:17.774Z,3.50
2023-08-01T01:02:46.024Z,3.40
2023-08-01T01:05:14.822Z,3.47
2023-08-01T01:07:43.509Z,3.43
2023-08-01T01:10:12.397Z,3.37
2023-08-01T01:12:39.959Z,3.43
2023-08-01T01:15:08.818Z,3.47
2023-08-01T01:17:36.376Z,3.00
2023-08-01T01:20:04.533Z,2.90
2023-08-01T01:22:34.008Z,2.73
2023-08-01T01:25:03.970Z,2.83
2023-08-01T01:27:32.620Z,2.50
2023-08-01T01:30:01.274Z,2.67
2023-08-01T01:32:30.483Z,2.60
2023-08-01T01:34:58.144Z,2.20
2023-08-01T01:37:25.854Z,2.47
2023-08-01T01:39:54.783Z,2.80
2023-08-01T01:42:22.373Z,2.93
2023-08-01T01:44:49.912Z,2.63
2023-08-01T01:47:17.454Z,2.70
2023-08-01T01:49:45.227Z,2.70
2023-08-01T01:52:12.808Z,2.60
2023-08-01T01:54:40.474Z,2.17
2023-08-01T01:57:09.473Z,2.50
2023-08-01T01:59:37.058Z,1.93
2023-08-01T02:02:05.654Z,2.17
2023-08-01T02:04:34.519Z,2.20
2023-08-01T02:07:02.137Z,2.50
2023-08-01T02:09:29.674Z,2.33
2023-08-01T02:11:57.267Z,2.23
2023-08-01T02:14:26.343Z,2.50
2023-08-01T02:16:53.930Z,2.50
2023-08-01T02:19:21.565Z,2.60
2023-08-01T02:21:49.165Z,2.87
2023-08-01T02:24:16.744Z,2.60
2023-08-01T02:26:44.318Z,3.10
2023-08-01T02:29:11.910Z,3.53
2023-08-01T02:31:40.882Z,3.73
2023-08-01T02:34:08.454Z,3.90
2023-08-01T02:36:36.104Z,4.00
2023-08-01T02:39:03.723Z,3.90
2023-08-01T02:41:31.282Z,4.00
2023-08-01T02:43:58.810Z,3.80
2023-08-01T02:46:29.051Z,3.87
2023-08-01T02:48:58.037Z,3.60
2023-08-01T02:51:25.566Z,4.07
2023-08-01T02:53:53.090Z,4.30
2023-08-01T02:56:20.673Z,3.97
2023-08-01T02:58:48.231Z,3.83
2023-08-01T03:01:15.878Z,4.00
2023-08-01T03:03:43.624Z,3.80
2023-08-01T03:06:13.600Z,4.10
2023-08-01T03:08:41.196Z,4.00
2023-08-01T03:11:08.929Z,4.13
2023-08-01T03:13:36.764Z,3.50
2023-08-01T03:16:05.581Z,3.57
2023-08-01T03:18:33.389Z,3.47
2023-08-01T03:21:00.939Z,2.43
2023-08-01T03:23:30.324Z,2.30
2023-08-01T03:25:57.989Z,2.10
2023-08-01T03:28:26.075Z,2.20
2023-08-01T03:30:54.689Z,2.30
2023-08-01T03:33:22.543Z,2.37
2023-08-01T03:35:50.094Z,2.47
2023-08-01T03:38:17.608Z,2.50
2023-08-01T03:40:46.587Z,2.97
2023-08-01T03:43:14.205Z,3.03
2023-08-01T03:45:41.971Z,3.27
2023-08-01T03:48:09.717Z,3.20
2023-08-01T03:50:37.392Z,3.07
2023-08-01T03:53:04.928Z,3.00
2023-08-01T03:55:32.614Z,3.30
2023-08-01T03:58:01.507Z,3.17
2023-08-01T04:00:33.429Z,2.90
2023-08-01T04:03:01.294Z,2.90
2023-08-01T04:05:29.009Z,2.80
2023-08-01T04:07:56.755Z,2.60
2023-08-01T04:10:24.471Z,2.50
2023-08-01T04:12:52.065Z,2.30
2023-08-01T04:15:21.246Z,2.10
2023-08-01T04:17:48.929Z,1.93
2023-08-01T04:20:16.691Z,1.90
2023-08-01T04:22:44.230Z,1.77
2023-08-01T04:25:11.843Z,1.90
2023-08-01T04:27:39.374Z,2.00
2023-08-01T04:30:08.307Z,2.10
2023-08-01T04:32:37.344Z,2.30
2023-08-01T04:35:05.559Z,2.20
2023-08-01T04:37:33.384Z,2.10
2023-08-01T04:40:00.907Z,2.30
2023-08-01T04:42:28.502Z,2.20
2023-08-01T04:44:56.086Z,2.30
2023-08-01T04:47:23.818Z,2.00
2023-08-01T04:49:52.790Z,2.17
2023-08-01T04:52:20.339Z,2.10
2023-08-01T04:54:48.081Z,2.43
2023-08-01T04:57:15.738Z,2.00
2023-08-01T04:59:43.739Z,2.10
2023-08-01T05:02:11.334Z,1.97
2023-08-01T05:04:39.104Z,1.80
2023-08-01T05:07:08.284Z,1.80
2023-08-01T05:09:35.840Z,1.90
2023-08-01T05:12:03.394Z,1.97
2023-08-01T05:14:30.954Z,2.00
2023-08-01T05:16:58.559Z,1.60
2023-08-01T05:19:26.094Z,1.50
2023-08-01T05:21:53.702Z,1.47
2023-08-01T05:24:22.957Z,1.33
2023-08-01T05:26:50.512Z,1.47
2023-08-01T05:29:18.069Z,1.67
2023-08-01T05:31:45.630Z,1.60
2023-08-01T05:34:13.276Z,1.57
2023-08-01T05:36:41.247Z,1.77
2023-08-01T05:39:09.264Z,1.70
2023-08-01T05:41:38.684Z,1.10
2023-08-01T05:44:06.425Z,0.40
2023-08-01T05:46:34.322Z,0.20
2023-08-01T05:49:02.032Z,0.60
2023-08-01T05:51:29.626Z,0.43
2023-08-01T05:53:57.197Z,0.20
2023-08-01T05:56:24.884Z,0.40
2023-08-01T05:58:53.824Z,0.20
2023-08-01T06:01:21.753Z,0.20
2023-08-01T06:03:49.439Z,0.27
2023-08-01T06:06:17.033Z,0.30
2023-08-01T06:08:44.632Z,0.40
2023-08-01T06:11:12.394Z,0.50
2023-08-01T06:13:40.052Z,1.00
2023-08-01T06:16:09.127Z,0.70
2023-08-01T06:18:36.712Z,0.70
2023-08-01T06:21:04.687Z,0.80
2023-08-01T06:23:32.254Z,1.10
2023-08-01T06:25:59.835Z,0.90
2023-08-01T06:28:27.394Z,1.00
2023-08-01T06:30:55.047Z,1.00
2023-08-01T06:33:24.066Z,1.00
2023-08-01T06:35:51.800Z,1.07
2023-08-01T06:38:19.340Z,1.20
2023-08-01T06:40:46.868Z,1.20
2023-08-01T06:43:14.458Z,1.40
2023-08-01T06:45:42.014Z,1.17
2023-08-01T06:48:10.299Z,1.20
2023-08-01T06:50:39.254Z,1.50
2023-08-01T06:53:07.070Z,1.33
2023-08-01T06:55:34.698Z,1.33
2023-08-01T06:58:02.253Z,1.47
2023-08-01T07:00:29.992Z,1.40
2023-08-01T07:02:57.842Z,1.53
2023-08-01T07:05:25.635Z,1.50
2023-08-01T07:07:54.537Z,1.40
2023-08-01T07:10:22.115Z,1.50
2023-08-01T07:12:50.108Z,1.50
2023-08-01T07:15:17.758Z,1.60
2023-08-01T07:17:45.375Z,1.57
2023-08-01T07:20:13.494Z,1.60
2023-08-01T07:22:41.033Z,1.53
2023-08-01T07:25:12.994Z,1.60
2023-08-01T07:27:40.956Z,1.67
2023-08-01T07:30:10.948Z,1.50
2023-08-01T07:32:39.183Z,1.73
2023-08-01T07:35:07.985Z,1.60
2023-08-01T07:37:35.779Z,1.57
2023-08-01T07:40:03.378Z,1.50
2023-08-01T07:42:32.358Z,1.50
2023-08-01T07:45:00.196Z,1.60
2023-08-01T07:47:27.839Z,1.63
2023-08-01T07:49:55.622Z,1.73
2023-08-01T07:52:23.231Z,1.57
2023-08-01T07:54:50.853Z,1.60
2023-08-01T07:57:18.464Z,1.70
2023-08-01T07:59:47.381Z,1.57
2023-08-01T08:02:14.992Z,1.80
2023-08-01T08:04:42.595Z,1.73
2023-08-01T08:07:10.122Z,1.60
2023-08-01T08:09:37.647Z,1.77
2023-08-01T08:12:05.822Z,1.60
2023-08-01T08:14:33.431Z,1.80
2023-08-01T08:17:02.632Z,1.63
2023-08-01T08:19:30.282Z,1.60
2023-08-01T08:21:57.871Z,1.80
2023-08-01T08:24:25.407Z,1.70
2023-08-01T08:26:52.997Z,1.53
2023-08-01T08:29:20.557Z,1.77
2023-08-01T08:31:48.198Z,1.80
2023-08-01T08:34:17.082Z,1.70
2023-08-01T08:36:45.185Z,1.73
2023-08-01T08:39:12.803Z,1.57
2023-08-01T08:41:47.090Z,1.73
2023-08-01T08:44:17.539Z,1.53
2023-08-01T08:46:48.823Z,1.50
2023-08-01T08:49:21.055Z,1.50
2023-08-01T08:51:48.802Z,1.40
2023-08-01T08:54:18.226Z,1.60
2023-08-01T08:56:46.340Z,1.55
2023-08-01T08:59:14.491Z,1.50
2023-08-01T09:01:42.103Z,1.60
2023-08-01T09:04:10.536Z,1.52
2023-08-01T09:06:44.999Z,1.55
2023-08-01T09:09:14.107Z,1.65
2023-08-01T09:11:46.022Z,1.73
2023-08-01T09:14:14.259Z,1.90
2023-08-01T09:16:42.857Z,1.55
2023-08-01T09:19:14.070Z,1.60
2023-08-01T09:21:43.090Z,1.50
2023-08-01T09:24:11.644Z,1.52
2023-08-01T09:26:40.364Z,1.40
2023-08-01T09:29:09.061Z,1.70
2023-08-01T09:31:38.307Z,1.35
2023-08-01T09:34:08.218Z,1.42
2023-08-01T09:36:36.262Z,1.48
2023-08-01T09:39:06.984Z,1.60
2023-08-01T09:41:34.660Z,1.50
2023-08-01T09:44:02.544Z,1.40
2023-08-01T09:46:30.128Z,1.70
2023-08-01T09:49:08.188Z,1.80
2023-08-01T09:51:35.723Z,1.50
2023-08-01T09:54:03.253Z,1.48
2023-08-01T09:56:32.417Z,1.70
2023-08-01T09:59:02.171Z,1.63
2023-08-01T10:01:33.196Z,1.45
2023-08-01T10:04:01.540Z,1.60
2023-08-01T10:06:34.004Z,1.60
2023-08-01T10:09:01.715Z,1.30
2023-08-01T10:11:36.314Z,1.52
2023-08-01T10:14:05.392Z,1.50
2023-08-01T10:16:33.287Z,1.40
2023-08-01T10:19:01.718Z,1.50
2023-08-01T10:21:30.029Z,1.52
2023-08-01T10:24:00.387Z,1.70
2023-08-01T10:26:28.443Z,1.90
2023-08-01T10:28:59.844Z,1.40
2023-08-01T10:31:27.934Z,1.80
2023-08-01T10:34:06.667Z,1.77
2023-08-01T10:36:34.827Z,1.55
2023-08-01T10:39:03.855Z,1.52
2023-08-01T10:41:33.089Z,1.55
2023-08-01T10:44:10.354Z,1.65
2023-08-01T10:46:48.675Z,1.70
2023-08-01T10:49:16.700Z,1.60
2023-08-01T10:51:44.745Z,1.63
2023-08-01T10:54:23.086Z,1.33
2023-08-01T10:56:52.384Z,1.60
2023-08-01T10:59:22.731Z,1.63
2023-08-01T11:01:52.139Z,1.60
2023-08-01T11:04:20.670Z,1.50
2023-08-01T11:06:50.461Z,1.50
2023-08-01T11:09:20.023Z,1.55
2023-08-01T11:11:50.346Z,1.40
2023-08-01T11:14:18.736Z,1.55
2023-08-01T11:16:47.738Z,1.67
2023-08-01T11:19:23.227Z,1.58
2023-08-01T11:21:52.763Z,1.65
2023-08-01T11:24:21.724Z,1.50
2023-08-01T11:26:50.957Z,1.42
2023-08-01T11:29:19.948Z,1.50
2023-08-01T11:31:56.129Z,1.65
2023-08-01T11:34:23.885Z,1.60
2023-08-01T11:36:52.298Z,1.77
2023-08-01T11:39:20.796Z,1.48
2023-08-01T11:41:48.406Z,1.48
2023-08-01T11:44:15.984Z,1.60
2023-08-01T11:46:43.912Z,1.48
2023-08-01T11:49:16.255Z,1.33
2023-08-01T11:51:44.875Z,1.58
2023-08-01T11:54:14.181Z,1.42
2023-08-01T11:56:43.230Z,1.52
2023-08-01T11:59:11.999Z,1.45
2023-08-01T12:01:43.586Z,1.38
2023-08-01T12:04:13.046Z,1.42
2023-08-01T12:06:42.145Z,1.40
2023-08-01T12:09:12.559Z,1.42
2023-08-01T12:11:41.108Z,1.45
2023-08-01T12:14:10.854Z,1.40
2023-08-01T12:16:39.995Z,1.50
2023-08-01T12:19:08.329Z,1.45
2023-08-01T12:21:37.542Z,1.35
2023-08-01T12:24:05.522Z,1.10
2023-08-01T12:26:33.060Z,1.20
2023-08-01T12:29:00.950Z,1.33
2023-08-01T12:31:28.641Z,1.23
2023-08-01T12:33:56.461Z,0.90
2023-08-01T12:36:24.268Z,1.10
2023-08-01T12:38:53.259Z,1.10
2023-08-01T12:41:20.986Z,1.10
2023-08-01T12:43:48.665Z,1.20
2023-08-01T12:46:16.295Z,1.10
2023-08-01T12:48:43.983Z,1.30
2023-08-01T12:51:11.592Z,1.10
2023-08-01T12:53:40.589Z,1.30
2023-08-01T12:56:09.717Z,1.10
2023-08-01T12:58:37.522Z,1.27
2023-08-01T13:01:05.795Z,1.17
2023-08-01T13:03:33.684Z,1.38
2023-08-01T13:06:01.383Z,1.10
2023-08-01T13:08:30.117Z,1.48
2023-08-01T13:11:00.564Z,1.27
2023-08-01T13:13:29.606Z,1.15
2023-08-01T13:15:58.786Z,1.10
2023-08-01T13:18:26.362Z,1.00
2023-08-01T13:20:54.023Z,1.05
2023-08-01T13:23:21.562Z,1.13
2023-08-01T13:25:50.861Z,1.10
2023-08-01T13:28:19.517Z,1.10
2023-08-01T13:30:48.432Z,0.90
2023-08-01T13:33:16.012Z,1.10
2023-08-01T13:35:43.585Z,1.00
2023-08-01T13:38:11.168Z,1.30
2023-08-01T13:40:38.745Z,1.25
2023-08-01T13:43:06.258Z,1.30
2023-08-01T13:45:34.003Z,1.60
2023-08-01T13:48:03.022Z,1.48
2023-08-01T13:50:31.144Z,1.60
2023-08-01T13:52:58.707Z,1.40
2023-08-01T13:55:26.270Z,1.50
2023-08-01T13:57:53.834Z,1.30
2023-08-01T14:00:21.651Z,1.17
2023-08-01T14:02:51.625Z,1.15
2023-08-01T14:05:20.620Z,0.90
2023-08-01T14:07:48.259Z,1.05
2023-08-01T14:10:17.048Z,1.17
2023-08-01T14:12:44.608Z,1.10
2023-08-01T14:15:12.916Z,1.00
2023-08-01T14:17:41.027Z,1.10
2023-08-01T14:20:10.370Z,1.00
2023-08-01T14:22:39.344Z,0.90
2023-08-01T14:25:08.367Z,0.90
2023-08-01T14:27:35.948Z,0.80
2023-08-01T14:30:04.159Z,1.15
2023-08-01T14:32:31.710Z,0.80
2023-08-01T14:34:59.215Z,1.00
2023-08-01T14:37:27.100Z,1.00
2023-08-01T14:39:55.993Z,1.15
2023-08-01T14:42:23.543Z,0.98
2023-08-01T14:44:54.221Z,0.93
2023-08-01T14:47:22.102Z,1.13
2023-08-01T14:49:50.871Z,1.25
2023-08-01T14:52:21.250Z,1.10
2023-08-01T14:54:52.548Z,1.35
2023-08-01T14:57:21.517Z,1.13
2023-08-01T14:59:49.188Z,1.40
2023-08-01T15:02:17.261Z,1.10
2023-08-01T15:04:44.877Z,1.25
2023-08-01T15:07:12.507Z,1.30
2023-08-01T15:09:44.223Z,1.30
2023-08-01T15:12:12.010Z,1.35
2023-08-01T15:14:41.021Z,1.45
2023-08-01T15:17:09.924Z,1.10
2023-08-01T15:19:40.409Z,1.30
2023-08-01T15:22:08.465Z,1.10
2023-08-01T15:24:36.017Z,1.27
2023-08-01T15:27:03.646Z,1.10
2023-08-01T15:29:31.150Z,1.20
2023-08-01T15:32:00.108Z,1.20
2023-08-01T15:34:27.772Z,1.05
2023-08-01T15:36:55.440Z,1.20
2023-08-01T15:39:23.217Z,1.10
2023-08-01T15:41:50.854Z,1.08
2023-08-01T15:44:18.483Z,1.10
2023-08-01T15:46:46.045Z,1.30
2023-08-01T15:49:14.966Z,1.08
2023-08-01T15:51:42.567Z,1.02
2023-08-01T15:54:11.726Z,0.95
2023-08-01T15:56:39.541Z,1.20
2023-08-01T15:59:07.304Z,0.90
2023-08-01T16:01:34.937Z,0.93
2023-08-01T16:04:02.626Z,0.90
2023-08-01T16:06:31.584Z,1.20
2023-08-01T16:08:59.208Z,1.20
2023-08-01T16:11:26.742Z,1.10
2023-08-01T16:13:54.291Z,1.10
2023-08-01T16:16:21.942Z,1.15
2023-08-01T16:18:49.545Z,1.20
2023-08-01T16:21:17.130Z,1.00
2023-08-01T16:23:46.279Z,1.00
2023-08-01T16:26:13.843Z,1.13
2023-08-01T16:28:41.368Z,1.10
2023-08-01T16:31:08.946Z,1.10
2023-08-01T16:33:36.500Z,0.85
2023-08-01T16:36:04.268Z,0.90
2023-08-01T16:38:31.804Z,0.95
2023-08-01T16:41:00.861Z,0.90
2023-08-01T16:43:28.595Z,0.95
2023-08-01T16:45:58.864Z,1.10
2023-08-01T16:48:26.485Z,1.25
2023-08-01T16:50:54.088Z,0.90
2023-08-01T16:53:21.692Z,1.00
2023-08-01T16:55:49.270Z,0.98
2023-08-01T16:58:18.143Z,1.08
2023-08-01T17:00:45.760Z,1.00
2023-08-01T17:03:13.482Z,0.90
2023-08-01T17:05:41.085Z,0.80
2023-08-01T17:08:08.671Z,1.20
2023-08-01T17:10:36.496Z,1.05
2023-08-01T17:13:04.145Z,1.00
2023-08-01T17:15:33.227Z,1.10
2023-08-01T17:18:00.841Z,1.00
2023-08-01T17:20:28.873Z,0.90
2023-08-01T17:22:56.413Z,1.10
2023-08-01T17:25:23.971Z,1.30
2023-08-01T17:27:54.351Z,1.27
2023-08-01T17:30:21.906Z,1.20
2023-08-01T17:32:51.099Z,1.10
2023-08-01T17:35:18.949Z,1.10
2023-08-01T17:37:46.561Z,1.30
2023-08-01T17:40:14.090Z,1.00
2023-08-01T17:42:41.611Z,1.20
2023-08-01T17:45:11.020Z,1.30
2023-08-01T17:47:38.872Z,1.10
2023-08-01T17:50:08.728Z,1.20
2023-08-01T17:52:36.320Z,1.20
2023-08-01T17:55:04.409Z,1.20
2023-08-01T17:57:32.002Z,1.50
2023-08-01T17:59:59.642Z,1.20
2023-08-01T18:02:28.758Z,1.20
2023-08-01T18:04:56.467Z,1.30
2023-08-01T18:07:25.465Z,1.10
2023-08-01T18:09:53.052Z,1.20
2023-08-01T18:12:21.117Z,1.20
2023-08-01T18:14:48.758Z,1.23
2023-08-01T18:17:16.307Z,1.20
2023-08-01T18:19:43.849Z,1.03
2023-08-01T18:22:11.522Z,1.37
2023-08-01T18:24:40.410Z,1.40
2023-08-01T18:27:08.267Z,1.20
2023-08-01T18:29:35.787Z,1.13
2023-08-01T18:32:05.375Z,1.10
2023-08-01T18:34:36.390Z,1.23
2023-08-01T18:37:05.189Z,0.97
2023-08-01T18:39:33.305Z,1.10
2023-08-01T18:42:02.298Z,1.20
2023-08-01T18:44:29.863Z,1.20
2023-08-01T18:46:57.406Z,1.10
2023-08-01T18:49:25.311Z,1.23
2023-08-01T18:51:53.000Z,1.50
2023-08-01T18:54:20.746Z,1.17
2023-08-01T18:56:48.317Z,1.30
2023-08-01T18:59:17.788Z,1.10
2023-08-01T19:01:47.484Z,1.20
2023-08-01T19:04:15.181Z,0.90
2023-08-01T19:06:43.151Z,1.20
2023-08-01T19:09:20.942Z,1.10
2023-08-01T19:11:49.382Z,1.17
2023-08-01T19:14:18.382Z,1.20
2023-08-01T19:16:46.606Z,1.30
2023-08-01T19:19:14.602Z,1.30
2023-08-01T19:21:42.772Z,1.27
2023-08-01T19:24:10.349Z,1.10
2023-08-01T19:26:37.963Z,1.37
2023-08-01T19:29:05.617Z,1.10
2023-08-01T19:31:34.623Z,1.27
2023-08-01T19:34:02.546Z,1.10
2023-08-01T19:36:30.184Z,1.20
2023-08-01T19:38:57.761Z,1.10
2023-08-01T19:41:25.346Z,1.20
2023-08-01T19:43:53.002Z,1.20
2023-08-01T19:46:20.606Z,1.37
2023-08-01T19:48:49.617Z,1.20
2023-08-01T19:51:17.167Z,1.30
2023-08-01T19:53:44.817Z,1.30
2023-08-01T19:56:12.602Z,1.20
2023-08-01T19:58:42.757Z,1.40
2023-08-01T20:01:10.464Z,1.13
2023-08-01T20:03:38.244Z,1.40
2023-08-01T20:06:07.363Z,1.40
2023-08-01T20:08:34.997Z,1.43
2023-08-01T20:11:03.625Z,1.10
2023-08-01T20:13:31.212Z,1.50
2023-08-01T20:15:58.927Z,1.20
2023-08-01T20:18:26.868Z,1.40
2023-08-01T20:20:55.644Z,1.30
2023-08-01T20:23:25.061Z,1.20
2023-08-01T20:25:53.158Z,1.40
2023-08-01T20:28:21.047Z,1.30
2023-08-01T20:30:48.838Z,1.40
2023-08-01T20:33:16.896Z,1.50
2023-08-01T20:35:44.440Z,1.30
2023-08-01T20:38:12.007Z,1.20
2023-08-01T20:40:42.690Z,1.40
2023-08-01T20:43:10.426Z,1.20
2023-08-01T20:45:38.080Z,1.30
2023-08-01T20:48:08.943Z,1.20
2023-08-01T20:50:39.310Z,1.20
2023-08-01T20:53:06.936Z,1.20
2023-08-01T20:55:36.026Z,1.30
2023-08-01T20:58:04.970Z,1.20
2023-08-01T21:00:32.583Z,1.10
2023-08-01T21:03:00.339Z,1.40
2023-08-01T21:05:27.966Z,1.27
2023-08-01T21:07:55.557Z,1.20
2023-08-01T21:10:23.235Z,1.70
2023-08-01T21:12:50.971Z,1.40
2023-08-01T21:15:22.832Z,1.20
2023-08-01T21:17:50.544Z,1.77
2023-08-01T21:20:18.308Z,1.40
2023-08-01T21:22:45.852Z,1.40
2023-08-01T21:25:13.483Z,1.40
2023-08-01T21:27:41.044Z,1.40
2023-08-01T21:30:09.500Z,1.30
2023-08-01T21:32:38.502Z,1.40
2023-08-01T21:35:07.378Z,1.10
2023-08-01T21:37:34.896Z,1.30
2023-08-01T21:40:03.150Z,1.20
2023-08-01T21:42:30.703Z,1.20
2023-08-01T21:44:58.361Z,1.10
2023-08-01T21:47:25.888Z,1.10
2023-08-01T21:49:54.805Z,1.27
2023-08-01T21:52:22.525Z,1.20
2023-08-01T21:54:50.046Z,1.60
2023-08-01T21:57:17.577Z,1.20
2023-08-01T21:59:45.274Z,1.53
2023-08-01T22:02:12.901Z,1.43
2023-08-01T22:04:40.517Z,1.50
2023-08-01T22:07:09.482Z,1.30
2023-08-01T22:09:37.055Z,1.63
2023-08-01T22:12:04.966Z,1.50
2023-08-01T22:14:32.530Z,1.50
2023-08-01T22:17:00.102Z,1.30
2023-08-01T22:19:27.702Z,1.60
2023-08-01T22:21:55.231Z,1.40
2023-08-01T22:24:24.219Z,1.30
2023-08-01T22:26:51.975Z,1.33
2023-08-01T22:29:19.624Z,1.83
2023-08-01T22:31:47.205Z,1.73
2023-08-01T22:34:15.069Z,1.40
2023-08-01T22:36:42.988Z,1.37
2023-08-01T22:39:10.842Z,1.50
2023-08-01T22:41:39.835Z,1.20
2023-08-01T22:44:07.583Z,1.50
2023-08-01T22:46:35.211Z,1.50
2023-08-01T22:49:03.113Z,1.40
2023-08-01T22:51:30.669Z,1.30
2023-08-01T22:53:58.181Z,1.43
2023-08-01T22:56:25.777Z,1.50
2023-08-01T22:58:54.912Z,1.50
2023-08-01T23:01:24.156Z,1.50
2023-08-01T23:03:51.805Z,1.60
2023-08-01T23:06:19.532Z,1.40
2023-08-01T23:08:47.190Z,1.70
2023-08-01T23:11:14.761Z,1.80
2023-08-01T23:13:51.880Z,1.73
2023-08-01T23:16:20.873Z,1.80
2023-08-01T23:18:48.453Z,1.87
2023-08-01T23:21:15.969Z,1.60
2023-08-01T23:23:43.492Z,1.60
2023-08-01T23:26:11.967Z,2.13
2023-08-01T23:28:39.549Z,1.87
2023-08-01T23:31:07.166Z,1.80
2023-08-01T23:33:36.300Z,1.67
2023-08-01T23:36:06.487Z,1.50
2023-08-01T23:38:34.024Z,1.60
2023-08-01T23:41:01.608Z,1.60
2023-08-01T23:43:29.277Z,1.83
2023-08-01T23:45:56.859Z,1.70
2023-08-01T23:48:24.818Z,1.60
2023-08-01T23:50:53.696Z,1.93
2023-08-01T23:53:21.769Z,1.97
2023-08-01T23:55:49.523Z,1.90
2023-08-01T23:58:17.111Z,1.80
